Time;durP1;ratioP1;P1;durP2;ratioP2;P2;SDS_P1;SDS_P2;PMS_P1;PMS_P2;Temp;Humidity;BMP_temperature;BMP_pressure;BME280_temperature;BME280_humidity;BME280_pressure;Samples;Min_cycle;Max_cycle;Signal;HPM_P1;HPM_P2
2024/02/13 00:01:44;;;;;;;5.87;5.23;;;;;;;;;;5000502;28;20226;-83
2024/02/13 00:04:10;;;;;;;6.57;5.63;;;;;;;;;;4968035;28;20578;-84
2024/02/13 00:06:36;;;;;;;6.30;5.27;;;;;;;;;;4993509;28;20735;-83
2024/02/13 00:09:04;;;;;;;7.53;5.73;;;;;;;;;;4986412;28;20227;-84
2024/02/13 00:11:30;;;;;;;6.60;5.80;;;;;;;;;;4962046;28;20229;-84
2024/02/13 00:13:56;;;;;;;7.00;6.30;;;;;;;;;;4983834;28;20231;-83
2024/02/13 00:16:22;;;;;;;8.83;6.47;;;;;;;;;;4998747;28;20256;-84
2024/02/13 00:18:53;;;;;;;7.60;6.80;;;;;;;;;;4986153;28;20232;-84
2024/02/13 00:21:19;;;;;;;8.10;7.30;;;;;;;;;;4980247;28;20230;-84
2024/02/13 00:23:45;;;;;;;9.13;7.57;;;;;;;;;;4987052;28;20216;-84
2024/02/13 00:26:11;;;;;;;9.17;7.60;;;;;;;;;;4967149;28;20251;-83
2024/02/13 00:28:39;;;;;;;8.70;7.80;;;;;;;;;;4977358;28;20213;-84
2024/02/13 00:31:08;;;;;;;10.83;7.70;;;;;;;;;;4983465;28;20250;-84
2024/02/13 00:33:40;;;;;;;11.27;8.23;;;;;;;;;;4975046;28;20220;-84
2024/02/13 00:36:07;;;;;;;8.67;7.77;;;;;;;;;;5000239;28;20302;-84
2024/02/13 00:38:32;;;;;;;10.77;8.50;;;;;;;;;;4970942;28;20228;-84
2024/02/13 00:40:58;;;;;;;9.40;7.90;;;;;;;;;;4981134;28;20224;-83
2024/02/13 00:43:24;;;;;;;9.77;8.40;;;;;;;;;;4967269;28;20616;-85
2024/02/13 00:45:52;;;;;;;10.00;8.60;;;;;;;;;;4966316;28;20593;-83
2024/02/13 00:48:17;;;;;;;9.40;8.53;;;;;;;;;;4999476;28;20235;-84
2024/02/13 00:50:44;;;;;;;10.90;9.07;;;;;;;;;;4998663;28;20596;-83
2024/02/13 00:53:14;;;;;;;9.93;8.70;;;;;;;;;;4984846;28;20842;-84
2024/02/13 00:55:42;;;;;;;10.90;9.03;;;;;;;;;;4993775;28;20220;-83
2024/02/13 00:58:08;;;;;;;10.33;8.80;;;;;;;;;;4981812;28;20224;-85
2024/02/13 01:00:34;;;;;;;11.90;8.83;;;;;;;;;;4958630;28;20231;-83
2024/02/13 01:03:02;;;;;;;11.43;9.67;;;;;;;;;;4982432;28;20236;-82
2024/02/13 01:05:30;;;;;;;16.00;9.77;;;;;;;;;;4983589;28;20224;-85
2024/02/13 01:07:56;;;;;;;10.80;9.73;;;;;;;;;;4994110;28;20925;-83
2024/02/13 01:10:22;;;;;;;13.80;9.90;;;;;;;;;;4964950;28;20294;-83
2024/02/13 01:12:48;;;;;;;13.63;9.47;;;;;;;;;;5007677;28;20285;-84
2024/02/13 01:15:16;;;;;;;11.80;9.40;;;;;;;;;;4976851;28;20224;-83
2024/02/13 01:17:44;;;;;;;19.40;10.13;;;;;;;;;;4972626;28;20228;-83
2024/02/13 01:20:13;;;;;;;12.13;9.40;;;;;;;;;;4979339;28;20292;-83
2024/02/13 01:22:39;;;;;;;13.43;9.57;;;;;;;;;;4982706;28;20269;-84
2024/02/13 01:25:10;;;;;;;14.43;9.20;;;;;;;;;;4979946;28;20224;-83
2024/02/13 01:27:38;;;;;;;12.60;9.93;;;;;;;;;;4983311;28;20216;-84
2024/02/13 01:30:09;;;;;;;14.03;9.57;;;;;;;;;;4980624;28;20231;-83
2024/02/13 01:32:37;;;;;;;12.07;9.63;;;;;;;;;;4982497;28;20219;-83
2024/02/13 01:35:07;;;;;;;15.47;9.77;;;;;;;;;;4983009;28;20220;-84
2024/02/13 01:37:39;;;;;;;12.23;9.70;;;;;;;;;;4978853;28;20232;-86
2024/02/13 01:40:06;;;;;;;16.63;9.70;;;;;;;;;;4953639;28;20714;-83
2024/02/13 01:42:37;;;;;;;12.37;9.70;;;;;;;;;;4978351;28;20303;-83
2024/02/13 01:45:13;;;;;;;10.93;8.90;;;;;;;;;;4982036;28;20228;-83
2024/02/13 01:47:41;;;;;;;14.83;9.93;;;;;;;;;;5008067;28;20250;-82
2024/02/13 01:50:08;;;;;;;13.70;9.40;;;;;;;;;;4983623;28;20239;-83
2024/02/13 01:52:36;;;;;;;11.47;9.40;;;;;;;;;;4982963;28;20220;-83
2024/02/13 01:55:02;;;;;;;15.07;8.83;;;;;;;;;;4976082;28;20243;-83
2024/02/13 01:57:31;;;;;;;11.60;8.80;;;;;;;;;;4999081;28;20733;-82
2024/02/13 01:59:56;;;;;;;10.90;9.63;;;;;;;;;;4980057;28;20694;-83
2024/02/13 02:02:23;;;;;;;12.63;9.13;;;;;;;;;;4983660;28;20227;-84
2024/02/13 02:04:48;;;;;;;12.63;9.70;;;;;;;;;;4973999;28;20223;-84
2024/02/13 02:07:14;;;;;;;15.90;9.77;;;;;;;;;;4982992;28;20233;-85
2024/02/13 02:09:39;;;;;;;14.30;9.33;;;;;;;;;;4985660;28;20249;-84
2024/02/13 02:12:09;;;;;;;12.93;9.10;;;;;;;;;;4983961;28;20229;-84
2024/02/13 02:14:35;;;;;;;14.43;9.90;;;;;;;;;;4991988;28;20231;-84
2024/02/13 02:17:08;;;;;;;12.97;9.70;;;;;;;;;;4961425;28;20220;-83
2024/02/13 02:19:34;;;;;;;13.07;10.20;;;;;;;;;;4979806;28;20296;-83
2024/02/13 02:22:03;;;;;;;16.27;11.23;;;;;;;;;;4971726;28;20247;-82
2024/02/13 02:24:30;;;;;;;14.67;10.27;;;;;;;;;;5008027;28;20229;-82
2024/02/13 02:26:58;;;;;;;17.07;11.13;;;;;;;;;;4990822;28;20228;-81
2024/02/13 02:29:25;;;;;;;17.00;10.23;;;;;;;;;;4982713;28;20224;-82
2024/02/13 02:31:51;;;;;;;17.23;10.97;;;;;;;;;;4989202;28;20223;-83
2024/02/13 02:34:20;;;;;;;14.27;10.63;;;;;;;;;;4997306;28;20239;-82
2024/02/13 02:36:52;;;;;;;15.80;11.20;;;;;;;;;;4967904;28;20232;-82
2024/02/13 02:39:22;;;;;;;15.13;10.70;;;;;;;;;;5002484;28;20238;-82
2024/02/13 02:41:47;;;;;;;13.30;10.37;;;;;;;;;;4976265;28;20239;-82
2024/02/13 02:44:16;;;;;;;14.97;11.13;;;;;;;;;;4959478;28;20327;-82
2024/02/13 02:46:41;;;;;;;16.47;11.27;;;;;;;;;;4974213;28;20282;-83
2024/02/13 02:49:07;;;;;;;16.57;10.60;;;;;;;;;;4981186;28;20228;-83
2024/02/13 02:51:33;;;;;;;15.40;11.10;;;;;;;;;;4979092;28;20240;-83
2024/02/13 02:53:59;;;;;;;16.40;11.37;;;;;;;;;;4993727;28;20648;-83
2024/02/13 02:56:24;;;;;;;15.47;11.30;;;;;;;;;;5007708;28;21052;-81
2024/02/13 02:58:50;;;;;;;15.73;11.10;;;;;;;;;;4967327;28;20221;-82
2024/02/13 03:01:20;;;;;;;16.33;10.97;;;;;;;;;;4979031;28;20225;-82
2024/02/13 03:03:46;;;;;;;15.03;10.67;;;;;;;;;;4979656;28;20962;-83
2024/02/13 03:06:13;;;;;;;19.17;10.73;;;;;;;;;;4981222;28;20232;-83
2024/02/13 03:08:40;;;;;;;14.17;10.77;;;;;;;;;;4980209;28;20224;-83
2024/02/13 03:11:11;;;;;;;15.10;10.90;;;;;;;;;;4986710;28;20221;-82
2024/02/13 03:13:36;;;;;;;16.07;11.50;;;;;;;;;;4984564;28;20225;-84
2024/02/13 03:16:04;;;;;;;14.13;10.73;;;;;;;;;;4966132;28;20265;-83
2024/02/13 03:18:32;;;;;;;18.07;10.93;;;;;;;;;;4971706;28;20243;-83
2024/02/13 03:20:57;;;;;;;15.93;11.23;;;;;;;;;;4977669;28;20240;-84
2024/02/13 03:23:28;;;;;;;15.87;10.70;;;;;;;;;;4982030;28;20697;-83
2024/02/13 03:25:54;;;;;;;13.47;10.83;;;;;;;;;;4986789;28;20255;-82
2024/02/13 03:28:22;;;;;;;15.10;10.20;;;;;;;;;;4983767;28;20220;-84
2024/02/13 03:30:54;;;;;;;15.77;10.43;;;;;;;;;;5000465;28;20224;-84
2024/02/13 03:33:20;;;;;;;12.97;10.53;;;;;;;;;;4977195;28;20227;-83
2024/02/13 03:35:48;;;;;;;12.17;10.80;;;;;;;;;;4992809;28;20227;-83
2024/02/13 03:38:16;;;;;;;13.10;10.90;;;;;;;;;;4995324;28;20231;-83
2024/02/13 03:40:44;;;;;;;15.73;11.27;;;;;;;;;;4968715;28;20220;-83
2024/02/13 03:43:12;;;;;;;15.10;10.83;;;;;;;;;;4979158;28;20227;-83
2024/02/13 03:45:38;;;;;;;16.67;12.03;;;;;;;;;;4960528;28;20250;-82
2024/02/13 03:48:04;;;;;;;17.60;11.80;;;;;;;;;;4959501;28;20233;-82
2024/02/13 03:50:31;;;;;;;17.10;11.57;;;;;;;;;;4969450;28;20220;-83
2024/02/13 03:52:59;;;;;;;14.63;11.80;;;;;;;;;;4998315;28;20227;-83
2024/02/13 03:55:25;;;;;;;13.53;11.93;;;;;;;;;;4980953;28;20998;-83
2024/02/13 03:57:50;;;;;;;13.90;11.70;;;;;;;;;;4994777;28;20212;-82
2024/02/13 04:04:04;;;;;;;13.97;11.80;;;;;;;;;;5023695;28;20970;-83
2024/02/13 04:06:33;;;;;;;18.67;12.07;;;;;;;;;;4980020;28;20220;-83
2024/02/13 04:09:03;;;;;;;16.83;12.97;;;;;;;;;;4969587;28;20872;-83
2024/02/13 04:11:31;;;;;;;19.43;12.53;;;;;;;;;;4973587;28;20224;-84
2024/02/13 04:13:57;;;;;;;19.17;12.33;;;;;;;;;;4999718;28;20220;-84
2024/02/13 04:16:27;;;;;;;23.87;13.37;;;;;;;;;;4979555;28;20232;-83
2024/02/13 04:18:53;;;;;;;16.80;13.30;;;;;;;;;;4980737;28;20714;-81
2024/02/13 04:21:19;;;;;;;23.20;14.00;;;;;;;;;;5007848;28;20220;-82
2024/02/13 04:23:45;;;;;;;19.60;13.37;;;;;;;;;;4982301;28;20921;-83
2024/02/13 04:26:13;;;;;;;20.50;13.53;;;;;;;;;;4967360;28;20224;-83
2024/02/13 04:28:41;;;;;;;17.20;14.07;;;;;;;;;;4982188;28;20270;-81
2024/02/13 04:31:09;;;;;;;17.87;13.50;;;;;;;;;;4982601;28;20232;-82
2024/02/13 04:33:37;;;;;;;20.00;13.93;;;;;;;;;;5007579;28;20224;-83
2024/02/13 04:36:03;;;;;;;20.47;14.27;;;;;;;;;;4988542;28;20226;-81
2024/02/13 04:38:31;;;;;;;19.40;13.87;;;;;;;;;;4981164;28;20559;-84
2024/02/13 04:40:59;;;;;;;22.00;15.10;;;;;;;;;;4965690;28;20284;-83
2024/02/13 04:43:27;;;;;;;22.63;15.80;;;;;;;;;;4981253;28;20227;-82
2024/02/13 04:45:54;;;;;;;20.90;14.93;;;;;;;;;;4963110;28;20213;-84
2024/02/13 04:48:25;;;;;;;23.43;14.87;;;;;;;;;;5011984;28;20276;-83
2024/02/13 04:50:53;;;;;;;26.03;15.83;;;;;;;;;;4975623;28;20278;-78
2024/02/13 04:53:21;;;;;;;21.53;14.73;;;;;;;;;;5011481;28;20220;-79
2024/02/13 04:55:47;;;;;;;18.70;14.27;;;;;;;;;;5019075;28;20973;-79
2024/02/13 04:58:17;;;;;;;23.27;15.00;;;;;;;;;;4993937;28;20320;-79
2024/02/13 05:01:01;;;;;;;21.80;15.57;;;;;;;;;;5009175;28;20221;-78
2024/02/13 05:03:42;;;;;;;22.50;15.67;;;;;;;;;;4999794;28;21080;-80
2024/02/13 05:08:56;;;;;;;21.50;15.33;;;;;;;;;;5014634;28;20247;-80
2024/02/13 05:11:25;;;;;;;20.80;15.17;;;;;;;;;;4984801;28;20221;-79
2024/02/13 05:13:54;;;;;;;20.53;15.23;;;;;;;;;;4999194;28;20212;-79
2024/02/13 05:16:19;;;;;;;26.43;15.50;;;;;;;;;;5007543;28;20227;-79
2024/02/13 05:18:45;;;;;;;22.40;15.23;;;;;;;;;;4989266;28;20239;-79
2024/02/13 05:21:13;;;;;;;27.33;15.50;;;;;;;;;;5009157;28;20275;-79
2024/02/13 05:23:39;;;;;;;24.70;15.67;;;;;;;;;;4989836;28;20631;-80
2024/02/13 05:26:07;;;;;;;22.67;16.00;;;;;;;;;;4981031;28;20226;-79
2024/02/13 05:28:37;;;;;;;21.90;15.80;;;;;;;;;;4998189;28;20208;-79
2024/02/13 05:31:08;;;;;;;22.53;16.60;;;;;;;;;;4993738;28;20209;-79
2024/02/13 05:33:33;;;;;;;21.73;16.33;;;;;;;;;;4990320;28;20692;-78
2024/02/13 05:36:02;;;;;;;26.47;17.07;;;;;;;;;;4988857;28;20243;-79
2024/02/13 05:38:30;;;;;;;25.33;16.70;;;;;;;;;;4989464;28;20493;-78
2024/02/13 05:40:55;;;;;;;27.30;18.33;;;;;;;;;;5012685;28;20746;-78
2024/02/13 05:43:21;;;;;;;29.70;19.43;;;;;;;;;;4973959;28;20220;-79
2024/02/13 05:45:49;;;;;;;27.70;20.77;;;;;;;;;;4974960;28;20204;-80
2024/02/13 05:48:15;;;;;;;34.53;21.47;;;;;;;;;;5006971;28;20260;-78
2024/02/13 05:50:41;;;;;;;25.90;18.23;;;;;;;;;;5014633;28;20293;-79
2024/02/13 05:53:06;;;;;;;27.63;18.40;;;;;;;;;;5000126;28;20225;-79
2024/02/13 05:55:32;;;;;;;29.10;18.70;;;;;;;;;;4983301;28;21117;-79
2024/02/13 05:57:58;;;;;;;26.37;18.17;;;;;;;;;;4989414;28;20224;-79
2024/02/13 06:00:24;;;;;;;27.53;18.80;;;;;;;;;;5000066;28;20678;-80
2024/02/13 06:02:56;;;;;;;26.57;19.00;;;;;;;;;;4962901;28;20246;-79
2024/02/13 06:05:21;;;;;;;31.53;19.77;;;;;;;;;;5015772;28;20273;-79
2024/02/13 06:07:47;;;;;;;31.60;19.37;;;;;;;;;;4998813;28;20908;-79
2024/02/13 06:10:13;;;;;;;27.50;19.40;;;;;;;;;;4983020;28;20256;-79
2024/02/13 06:12:39;;;;;;;29.77;19.40;;;;;;;;;;5027158;28;20216;-80
2024/02/13 06:15:06;;;;;;;28.77;19.70;;;;;;;;;;4977078;28;20220;-79
2024/02/13 06:17:34;;;;;;;27.80;18.93;;;;;;;;;;5014218;28;20268;-80
2024/02/13 06:20:04;;;;;;;28.37;19.40;;;;;;;;;;5019112;28;20255;-79
2024/02/13 06:22:34;;;;;;;33.53;19.53;;;;;;;;;;5000868;28;20223;-79
2024/02/13 06:25:04;;;;;;;32.70;20.20;;;;;;;;;;4997122;28;20306;-77
2024/02/13 06:27:32;;;;;;;30.43;20.37;;;;;;;;;;5001299;28;20233;-79
2024/02/13 06:29:57;;;;;;;34.33;21.10;;;;;;;;;;4997680;28;20212;-79
2024/02/13 06:32:24;;;;;;;34.30;20.97;;;;;;;;;;4993011;28;20227;-79
2024/02/13 06:34:50;;;;;;;32.03;20.97;;;;;;;;;;5019316;28;20716;-80
2024/02/13 06:37:18;;;;;;;32.93;21.87;;;;;;;;;;4993650;28;20255;-79
2024/02/13 06:39:44;;;;;;;37.13;22.33;;;;;;;;;;5000146;28;20284;-79
2024/02/13 06:42:09;;;;;;;35.20;21.80;;;;;;;;;;5011284;28;20287;-79
2024/02/13 06:44:38;;;;;;;31.97;21.37;;;;;;;;;;4996695;28;20643;-78
2024/02/13 06:47:06;;;;;;;36.13;23.10;;;;;;;;;;5001990;28;20259;-79
2024/02/13 06:49:35;;;;;;;41.00;23.80;;;;;;;;;;5011420;28;20225;-79
2024/02/13 06:52:01;;;;;;;38.30;24.13;;;;;;;;;;4988144;28;20684;-78
2024/02/13 06:54:30;;;;;;;39.20;24.53;;;;;;;;;;5001419;28;20220;-79
2024/02/13 06:56:56;;;;;;;38.87;23.70;;;;;;;;;;4990189;28;20223;-78
2024/02/13 06:59:22;;;;;;;39.87;24.50;;;;;;;;;;5006475;28;20299;-78
2024/02/13 07:01:48;;;;;;;40.53;26.77;;;;;;;;;;4987315;28;20220;-79
2024/02/13 07:04:14;;;;;;;40.00;25.50;;;;;;;;;;5003649;28;20244;-78
2024/02/13 07:06:40;;;;;;;37.83;23.93;;;;;;;;;;5007948;28;20204;-77
2024/02/13 07:09:05;;;;;;;43.47;25.30;;;;;;;;;;4989750;28;20220;-78
2024/02/13 07:11:31;;;;;;;39.37;26.60;;;;;;;;;;4994587;28;20235;-79
2024/02/13 07:13:57;;;;;;;40.43;26.03;;;;;;;;;;4978916;28;20236;-78
2024/02/13 07:16:23;;;;;;;36.30;25.50;;;;;;;;;;4979161;28;20253;-78
2024/02/13 07:18:50;;;;;;;39.50;25.60;;;;;;;;;;4986617;28;20321;-79
2024/02/13 07:21:16;;;;;;;43.30;27.57;;;;;;;;;;5008732;28;20240;-79
2024/02/13 07:23:41;;;;;;;38.40;25.33;;;;;;;;;;4964359;28;20231;-79
2024/02/13 07:26:11;;;;;;;42.83;25.67;;;;;;;;;;4976808;28;20224;-79
2024/02/13 07:28:39;;;;;;;40.53;25.53;;;;;;;;;;5013749;28;20221;-78
2024/02/13 07:31:07;;;;;;;40.53;26.10;;;;;;;;;;4995660;28;20224;-78
2024/02/13 07:33:32;;;;;;;39.80;26.23;;;;;;;;;;5013780;28;20224;-78
2024/02/13 07:36:00;;;;;;;41.90;26.63;;;;;;;;;;5010349;28;20219;-79
2024/02/13 07:38:26;;;;;;;43.23;25.70;;;;;;;;;;5002453;28;20220;-78
2024/02/13 07:40:51;;;;;;;44.50;27.30;;;;;;;;;;5008904;28;20235;-78
2024/02/13 07:43:17;;;;;;;43.20;27.73;;;;;;;;;;4987054;28;20221;-79
2024/02/13 07:45:45;;;;;;;45.63;28.73;;;;;;;;;;5037744;28;20785;-78
2024/02/13 07:48:11;;;;;;;42.37;29.07;;;;;;;;;;5001454;28;20235;-78
2024/02/13 07:50:38;;;;;;;42.53;27.50;;;;;;;;;;5004352;28;20220;-77
2024/02/13 07:53:10;;;;;;;43.33;28.63;;;;;;;;;;4997830;28;20216;-78
2024/02/13 07:55:36;;;;;;;48.23;29.60;;;;;;;;;;4987708;28;20239;-77
2024/02/13 07:58:03;;;;;;;47.53;30.67;;;;;;;;;;5003879;28;20224;-79
2024/02/13 08:00:29;;;;;;;45.83;30.07;;;;;;;;;;4990108;28;20239;-78
2024/02/13 08:02:55;;;;;;;48.03;30.50;;;;;;;;;;5008046;28;20216;-78
2024/02/13 08:05:21;;;;;;;43.73;29.57;;;;;;;;;;5000605;28;20555;-79
2024/02/13 08:07:46;;;;;;;49.23;31.97;;;;;;;;;;4990249;28;20217;-78
2024/02/13 08:10:13;;;;;;;46.63;31.13;;;;;;;;;;5001942;28;20228;-78
2024/02/13 08:12:39;;;;;;;44.80;31.57;;;;;;;;;;4999748;28;20220;-79
2024/02/13 08:15:06;;;;;;;48.93;31.20;;;;;;;;;;5000558;28;20228;-78
2024/02/13 08:17:33;;;;;;;45.67;30.93;;;;;;;;;;4996350;28;20228;-78
2024/02/13 08:19:59;;;;;;;47.47;32.23;;;;;;;;;;5005423;28;20236;-79
2024/02/13 08:22:25;;;;;;;48.93;32.97;;;;;;;;;;5011547;28;20701;-79
2024/02/13 08:24:51;;;;;;;49.13;33.43;;;;;;;;;;5003725;28;20216;-78
2024/02/13 08:27:18;;;;;;;44.57;31.97;;;;;;;;;;4995784;28;20224;-79
2024/02/13 08:29:46;;;;;;;49.87;33.27;;;;;;;;;;4996224;28;20250;-79
2024/02/13 08:32:12;;;;;;;45.90;34.17;;;;;;;;;;4981949;28;20242;-78
2024/02/13 08:34:40;;;;;;;49.07;33.07;;;;;;;;;;4983951;28;20258;-79
2024/02/13 08:37:06;;;;;;;47.63;31.93;;;;;;;;;;4964020;28;20256;-78
2024/02/13 08:39:31;;;;;;;51.20;32.33;;;;;;;;;;4979082;28;20274;-79
2024/02/13 08:41:58;;;;;;;50.60;33.00;;;;;;;;;;4983117;28;20277;-78
2024/02/13 08:44:26;;;;;;;45.83;33.83;;;;;;;;;;4991633;28;20225;-79
2024/02/13 08:46:52;;;;;;;47.30;32.60;;;;;;;;;;4965136;28;20299;-79
2024/02/13 08:49:22;;;;;;;46.47;33.33;;;;;;;;;;4977929;28;20231;-79
2024/02/13 08:51:48;;;;;;;48.93;32.83;;;;;;;;;;5000180;28;20224;-79
2024/02/13 08:54:14;;;;;;;47.57;33.77;;;;;;;;;;4992301;28;20227;-78
2024/02/13 08:56:41;;;;;;;45.50;33.27;;;;;;;;;;4996326;28;20239;-78
2024/02/13 08:59:10;;;;;;;49.37;33.63;;;;;;;;;;5000640;28;20227;-78
2024/02/13 09:01:38;;;;;;;47.80;34.13;;;;;;;;;;5008734;28;20232;-79
2024/02/13 09:04:05;;;;;;;44.43;32.90;;;;;;;;;;4993483;28;20285;-79
2024/02/13 09:06:31;;;;;;;47.57;33.67;;;;;;;;;;4977830;28;20219;-79
2024/02/13 09:08:57;;;;;;;43.37;33.00;;;;;;;;;;5015838;28;20216;-80
2024/02/13 09:11:24;;;;;;;44.33;34.03;;;;;;;;;;4983091;28;20750;-79
2024/02/13 09:13:50;;;;;;;45.97;33.67;;;;;;;;;;4980454;28;20252;-79
2024/02/13 09:16:19;;;;;;;45.33;33.03;;;;;;;;;;5011061;28;20930;-79
2024/02/13 09:18:47;;;;;;;45.73;33.30;;;;;;;;;;5000697;28;20216;-78
2024/02/13 09:21:15;;;;;;;43.37;31.43;;;;;;;;;;4974748;28;20588;-78
2024/02/13 09:23:43;;;;;;;45.13;32.20;;;;;;;;;;4981370;28;20220;-80
2024/02/13 09:26:09;;;;;;;40.60;30.63;;;;;;;;;;4998918;28;20216;-80
2024/02/13 09:28:34;;;;;;;36.70;30.17;;;;;;;;;;4966394;28;20219;-77
2024/02/13 09:31:04;;;;;;;38.30;29.67;;;;;;;;;;5002246;28;20246;-77
2024/02/13 09:33:30;;;;;;;40.93;28.47;;;;;;;;;;4983921;28;20244;-77
2024/02/13 09:35:58;;;;;;;40.80;29.53;;;;;;;;;;5000179;28;20249;-77
2024/02/13 09:38:26;;;;;;;34.67;27.87;;;;;;;;;;4976653;28;20232;-77
2024/02/13 09:40:51;;;;;;;33.63;26.20;;;;;;;;;;5000536;28;20224;-79
2024/02/13 09:43:17;;;;;;;37.17;27.80;;;;;;;;;;4992685;28;20228;-78
2024/02/13 09:45:44;;;;;;;31.17;26.00;;;;;;;;;;5000210;28;20232;-78
2024/02/13 09:48:23;;;;;;;31.50;26.97;;;;;;;;;;4969781;28;20227;-79
2024/02/13 09:50:50;;;;;;;35.03;26.50;;;;;;;;;;4986865;28;21001;-77
2024/02/13 09:53:28;;;;;;;36.10;26.87;;;;;;;;;;5002173;28;20275;-79
2024/02/13 09:55:55;;;;;;;35.30;27.33;;;;;;;;;;5032214;28;20319;-77
2024/02/13 09:58:23;;;;;;;31.07;25.80;;;;;;;;;;5005867;28;20224;-78
2024/02/13 10:00:48;;;;;;;35.80;25.10;;;;;;;;;;5004770;28;20236;-78
2024/02/13 10:03:14;;;;;;;33.00;24.30;;;;;;;;;;4963968;28;20216;-78
2024/02/13 10:05:42;;;;;;;32.10;24.73;;;;;;;;;;4967427;28;20225;-79
2024/02/13 10:08:08;;;;;;;33.17;26.47;;;;;;;;;;5010240;28;20430;-79
2024/02/13 10:10:34;;;;;;;31.80;25.77;;;;;;;;;;5003361;28;20258;-78
2024/02/13 10:13:03;;;;;;;33.93;25.60;;;;;;;;;;5016483;28;20913;-79
2024/02/13 10:15:45;;;;;;;31.17;25.13;;;;;;;;;;4978231;28;20304;-78
2024/02/13 10:18:13;;;;;;;34.30;25.77;;;;;;;;;;4994475;28;20224;-79
2024/02/13 10:20:45;;;;;;;31.10;23.40;;;;;;;;;;4994816;28;20232;-78
2024/02/13 10:23:18;;;;;;;28.27;23.33;;;;;;;;;;4975077;28;20225;-78
2024/02/13 10:25:44;;;;;;;30.30;24.33;;;;;;;;;;4967821;28;20228;-78
2024/02/13 10:28:12;;;;;;;30.30;22.73;;;;;;;;;;4980971;28;20228;-78
2024/02/13 10:30:38;;;;;;;28.37;21.83;;;;;;;;;;4983208;28;20228;-78
2024/02/13 10:33:06;;;;;;;30.20;22.90;;;;;;;;;;4991747;28;20728;-78
2024/02/13 10:35:34;;;;;;;26.77;21.60;;;;;;;;;;4997169;28;20228;-78
2024/02/13 10:38:07;;;;;;;26.50;21.07;;;;;;;;;;4980754;28;20225;-78
2024/02/13 10:40:35;;;;;;;31.83;21.33;;;;;;;;;;4995701;28;20221;-79
2024/02/13 10:43:12;;;;;;;27.93;21.83;;;;;;;;;;5000686;28;20307;-79
2024/02/13 10:45:38;;;;;;;26.80;21.27;;;;;;;;;;4969358;28;20234;-78
2024/02/13 10:48:45;;;;;;;24.07;20.63;;;;;;;;;;5003008;28;20312;-78
2024/02/13 10:51:10;;;;;;;22.50;19.33;;;;;;;;;;4952430;28;20259;-80
2024/02/13 10:53:38;;;;;;;25.23;20.33;;;;;;;;;;4998134;28;20686;-78
2024/02/13 10:56:08;;;;;;;22.73;18.53;;;;;;;;;;4989108;28;20246;-78
2024/02/13 10:58:36;;;;;;;23.87;18.90;;;;;;;;;;5006809;28;20228;-77
2024/02/13 11:01:02;;;;;;;24.57;19.00;;;;;;;;;;4993407;28;20287;-79
2024/02/13 11:03:29;;;;;;;24.00;19.70;;;;;;;;;;4989957;28;20228;-79
2024/02/13 11:05:54;;;;;;;22.37;18.80;;;;;;;;;;4981529;28;20219;-78
2024/02/13 11:08:24;;;;;;;23.40;18.47;;;;;;;;;;4997646;28;20271;-79
2024/02/13 11:10:52;;;;;;;21.23;17.50;;;;;;;;;;5021357;28;20212;-79
2024/02/13 11:13:18;;;;;;;25.70;18.70;;;;;;;;;;4997152;28;20225;-77
2024/02/13 11:15:46;;;;;;;24.03;18.33;;;;;;;;;;4974613;28;20222;-79
2024/02/13 11:18:15;;;;;;;22.23;18.47;;;;;;;;;;4994913;28;20221;-78
2024/02/13 11:20:42;;;;;;;22.07;18.17;;;;;;;;;;4981307;28;20237;-78
2024/02/13 11:23:15;;;;;;;26.67;18.80;;;;;;;;;;4990498;28;20567;-79
2024/02/13 11:25:40;;;;;;;22.67;18.13;;;;;;;;;;4999986;28;20224;-78
2024/02/13 11:28:06;;;;;;;22.23;17.77;;;;;;;;;;4958956;28;20251;-78
2024/02/13 11:30:32;;;;;;;23.47;18.50;;;;;;;;;;4992102;28;20224;-78
2024/02/13 11:33:01;;;;;;;22.87;17.97;;;;;;;;;;4989354;28;20228;-79
2024/02/13 11:35:39;;;;;;;22.50;17.97;;;;;;;;;;4982888;28;20601;-78
2024/02/13 11:38:18;;;;;;;23.77;17.03;;;;;;;;;;4987796;28;20240;-78
2024/02/13 11:40:44;;;;;;;24.00;17.33;;;;;;;;;;4965031;28;20291;-78
2024/02/13 11:43:28;;;;;;;20.33;17.30;;;;;;;;;;4996446;28;20228;-78
2024/02/13 11:45:58;;;;;;;20.37;16.00;;;;;;;;;;4988024;28;20575;-78
2024/02/13 11:48:25;;;;;;;18.90;16.87;;;;;;;;;;4979759;28;20248;-78
2024/02/13 11:50:55;;;;;;;20.60;15.70;;;;;;;;;;5001418;28;20709;-79
2024/02/13 11:53:24;;;;;;;19.40;15.30;;;;;;;;;;4983459;28;20243;-78
2024/02/13 11:55:56;;;;;;;16.00;14.00;;;;;;;;;;4997677;28;20232;-79
2024/02/13 11:58:22;;;;;;;17.63;14.27;;;;;;;;;;4979909;28;20245;-77
2024/02/13 12:01:12;;;;;;;16.77;14.10;;;;;;;;;;4981772;28;20231;-79
2024/02/13 12:03:38;;;;;;;14.30;12.80;;;;;;;;;;4987190;28;20223;-77
2024/02/13 12:06:06;;;;;;;19.83;12.80;;;;;;;;;;5003037;28;20224;-78
2024/02/13 12:08:32;;;;;;;14.30;12.73;;;;;;;;;;4981830;28;20240;-79
2024/02/13 12:11:00;;;;;;;16.63;13.50;;;;;;;;;;4982126;28;20229;-78
2024/02/13 12:13:30;;;;;;;18.20;12.77;;;;;;;;;;4990909;28;20322;-78
2024/02/13 12:15:58;;;;;;;16.47;12.87;;;;;;;;;;4983206;28;20226;-79
2024/02/13 12:18:27;;;;;;;19.93;16.20;;;;;;;;;;4989943;28;20235;-78
2024/02/13 12:20:54;;;;;;;14.33;12.83;;;;;;;;;;4981737;28;20232;-78
2024/02/13 12:23:20;;;;;;;58.73;38.07;;;;;;;;;;4959904;28;20248;-78
2024/02/13 12:25:46;;;;;;;18.57;14.63;;;;;;;;;;4996745;28;20295;-78
2024/02/13 12:28:12;;;;;;;14.43;12.37;;;;;;;;;;4995155;28;20220;-78
2024/02/13 12:30:45;;;;;;;16.90;12.73;;;;;;;;;;4991246;28;20973;-78
2024/02/13 12:33:20;;;;;;;14.30;12.67;;;;;;;;;;4996368;28;20303;-77
2024/02/13 12:35:49;;;;;;;13.93;11.60;;;;;;;;;;5006382;28;20239;-78
2024/02/13 12:38:15;;;;;;;13.97;11.50;;;;;;;;;;4978646;28;20224;-77
2024/02/13 12:40:42;;;;;;;13.50;11.80;;;;;;;;;;4979608;28;20232;-78
2024/02/13 12:43:08;;;;;;;15.23;11.27;;;;;;;;;;4997805;28;20220;-79
2024/02/13 12:45:41;;;;;;;12.77;10.70;;;;;;;;;;4973139;28;20244;-80
2024/02/13 12:48:12;;;;;;;13.37;10.77;;;;;;;;;;4990607;28;20233;-77
2024/02/13 12:50:38;;;;;;;14.73;11.63;;;;;;;;;;4977952;28;20300;-79
2024/02/13 12:53:09;;;;;;;11.43;10.00;;;;;;;;;;4972420;28;20225;-77
2024/02/13 12:55:38;;;;;;;12.13;10.13;;;;;;;;;;4990984;28;20230;-78
2024/02/13 12:58:07;;;;;;;10.50;9.20;;;;;;;;;;4973539;28;20841;-80
2024/02/13 13:00:38;;;;;;;11.70;8.60;;;;;;;;;;4993804;28;20243;-78
2024/02/13 13:03:06;;;;;;;11.10;8.27;;;;;;;;;;5018802;28;20246;-81
2024/02/13 13:05:33;;;;;;;11.87;8.57;;;;;;;;;;4977568;28;20224;-78
2024/02/13 13:08:04;;;;;;;9.57;7.97;;;;;;;;;;4995751;28;20224;-77
2024/02/13 13:10:35;;;;;;;9.60;8.60;;;;;;;;;;4973298;28;20221;-78
2024/02/13 13:13:02;;;;;;;9.13;8.10;;;;;;;;;;4996092;28;20227;-78
2024/02/13 13:15:28;;;;;;;9.83;8.00;;;;;;;;;;5005300;28;20219;-79
2024/02/13 13:17:57;;;;;;;9.43;7.87;;;;;;;;;;4981631;28;20516;-78
2024/02/13 13:20:23;;;;;;;10.50;7.77;;;;;;;;;;4992633;28;20231;-78
2024/02/13 13:22:52;;;;;;;9.63;7.80;;;;;;;;;;4994164;28;20208;-78
2024/02/13 13:25:23;;;;;;;11.20;8.00;;;;;;;;;;4979114;28;20293;-78
2024/02/13 13:27:54;;;;;;;9.83;7.40;;;;;;;;;;4997303;28;21090;-78
2024/02/13 13:30:19;;;;;;;10.67;7.87;;;;;;;;;;4985341;28;20274;-77
2024/02/13 13:32:45;;;;;;;9.03;7.40;;;;;;;;;;4993988;28;20232;-78
2024/02/13 13:35:13;;;;;;;9.83;7.67;;;;;;;;;;4992611;28;20231;-80
2024/02/13 13:37:41;;;;;;;11.03;7.10;;;;;;;;;;5022542;28;20271;-77
2024/02/13 13:40:14;;;;;;;8.17;7.17;;;;;;;;;;4990437;28;20640;-80
2024/02/13 13:42:43;;;;;;;10.73;7.70;;;;;;;;;;4997806;28;20231;-78
2024/02/13 13:45:16;;;;;;;9.07;7.23;;;;;;;;;;4975344;28;20221;-78
2024/02/13 13:47:43;;;;;;;11.03;8.13;;;;;;;;;;5008529;28;20221;-80
2024/02/13 13:50:13;;;;;;;8.90;7.53;;;;;;;;;;4980346;28;20227;-79
2024/02/13 13:52:39;;;;;;;8.47;7.33;;;;;;;;;;4976922;28;20237;-78
2024/02/13 13:55:06;;;;;;;9.13;7.37;;;;;;;;;;4986167;28;20406;-77
2024/02/13 13:57:32;;;;;;;8.53;7.23;;;;;;;;;;4988146;28;20255;-77
2024/02/13 14:00:08;;;;;;;10.57;7.27;;;;;;;;;;4978139;28;20698;-78
2024/02/13 14:02:37;;;;;;;8.47;6.87;;;;;;;;;;4976045;28;20228;-77
2024/02/13 14:05:10;;;;;;;7.47;6.33;;;;;;;;;;4982558;28;20224;-78
2024/02/13 14:07:38;;;;;;;8.00;6.40;;;;;;;;;;4977302;28;20224;-77
2024/02/13 14:10:12;;;;;;;8.53;6.00;;;;;;;;;;4986489;28;20512;-78
2024/02/13 14:12:42;;;;;;;7.47;5.73;;;;;;;;;;4990476;28;20640;-77
2024/02/13 14:15:08;;;;;;;8.93;5.37;;;;;;;;;;4989863;28;20278;-79
2024/02/13 14:17:33;;;;;;;7.03;5.40;;;;;;;;;;4997130;28;20220;-78
2024/02/13 14:19:59;;;;;;;6.47;5.43;;;;;;;;;;5013042;28;20630;-79
2024/02/13 14:22:26;;;;;;;9.57;5.73;;;;;;;;;;5007319;28;20216;-78
2024/02/13 14:24:52;;;;;;;7.20;5.50;;;;;;;;;;4983709;28;20840;-78
2024/02/13 14:27:18;;;;;;;7.83;5.30;;;;;;;;;;4994597;28;20284;-78
2024/02/13 14:29:49;;;;;;;8.90;5.40;;;;;;;;;;5020472;28;20228;-77
2024/02/13 14:32:18;;;;;;;7.93;5.47;;;;;;;;;;4975353;28;20258;-77